createdAt,value
2023-03-11T03:44:00.706Z,21.00
2023-03-11T03:57:31.191Z,18.00
2023-03-11T03:58:02.427Z,17.50
2023-03-11T03:59:02.539Z,19.20
2023-03-11T04:00:02.558Z,19.90
2023-03-11T04:01:03.044Z,23.30
2023-03-11T04:02:02.449Z,20.40
2023-03-11T04:03:02.441Z,19.80
2023-03-11T04:04:02.760Z,19.50
2023-03-11T04:05:03.318Z,19.40
2023-03-11T04:06:03.232Z,19.60
2023-03-11T04:07:02.304Z,15.60
2023-03-11T04:08:02.310Z,19.40
2023-03-11T04:09:02.716Z,19.60
2023-03-11T04:10:03.456Z,21.70
2023-03-11T04:11:02.196Z,20.80
2023-03-11T04:12:02.839Z,18.40
2023-03-11T04:13:02.241Z,17.60
2023-03-11T04:14:02.259Z,18.60
2023-03-11T04:15:02.680Z,21.20
2023-03-11T04:16:02.063Z,18.90
2023-03-11T04:17:02.344Z,20.20
2023-03-11T04:18:02.070Z,19.50
2023-03-11T04:19:02.366Z,21.20
2023-03-11T04:20:02.727Z,17.20
2023-03-11T04:21:02.513Z,18.10
2023-03-11T04:22:02.433Z,22.40
2023-03-11T04:23:02.142Z,21.40
2023-03-11T04:24:02.220Z,19.80
2023-03-11T04:25:02.343Z,19.20
2023-03-11T04:26:03.187Z,19.00
2023-03-11T04:27:03.715Z,21.30
2023-03-11T04:28:02.046Z,20.50
2023-03-11T04:29:02.261Z,24.00
2023-03-11T04:30:02.140Z,23.00
2023-03-11T04:31:02.406Z,24.40
2023-03-11T04:32:02.706Z,23.40
2023-03-11T04:33:02.401Z,19.90
2023-03-11T04:34:02.184Z,19.20
2023-03-11T04:35:02.062Z,20.00
2023-03-11T04:36:01.950Z,18.80
2023-03-11T04:37:02.302Z,20.40
2023-03-11T04:38:02.104Z,20.80
2023-03-11T04:39:06.951Z,22.20
2023-03-11T04:40:03.237Z,24.20
2023-03-11T04:41:05.516Z,20.70
2023-03-11T04:42:03.984Z,19.70
2023-03-11T04:43:03.698Z,20.70
2023-03-11T04:44:09.030Z,22.30
2023-03-11T04:45:04.503Z,21.00
2023-03-11T04:46:02.873Z,23.00
2023-03-11T04:47:02.270Z,18.70
2023-03-11T04:48:03.003Z,19.70
2023-03-11T04:49:07.295Z,21.00
2023-03-11T04:50:02.376Z,20.40
2023-03-11T04:51:01.893Z,17.60
2023-03-11T04:52:01.718Z,18.00
2023-03-11T04:53:01.590Z,18.50
2023-03-11T04:54:01.698Z,18.90
2023-03-11T04:55:01.923Z,19.50
2023-03-11T04:56:01.713Z,17.20
2023-03-11T04:57:01.559Z,15.80
2023-03-11T04:58:01.453Z,17.70
2023-03-11T04:59:01.553Z,18.50
2023-03-11T05:00:01.460Z,16.70
2023-03-11T05:01:01.563Z,15.90
2023-03-11T05:02:01.446Z,18.00
2023-03-11T05:03:01.422Z,15.70
2023-03-11T05:04:01.461Z,15.10
2023-03-11T05:05:01.722Z,16.90
2023-03-11T05:06:01.375Z,15.70
2023-03-11T05:07:01.386Z,14.10
2023-03-11T05:08:01.312Z,14.30
2023-03-11T05:09:01.293Z,14.30
2023-03-11T05:10:01.338Z,12.90
2023-03-11T05:11:01.525Z,18.30
2023-03-11T05:12:01.304Z,17.70
2023-03-11T05:13:01.233Z,14.60
2023-03-11T05:14:01.420Z,15.90
2023-03-11T05:15:01.332Z,15.10
2023-03-11T05:16:01.323Z,15.60
2023-03-11T05:17:01.443Z,17.20
2023-03-11T05:18:01.252Z,15.50
2023-03-11T05:19:01.259Z,15.30
2023-03-11T05:20:01.279Z,15.10
2023-03-11T05:21:01.081Z,17.20
2023-03-11T05:22:01.276Z,14.50
2023-03-11T05:23:01.099Z,13.90
2023-03-11T05:24:01.179Z,14.90
2023-03-11T05:25:01.096Z,16.20
2023-03-11T05:26:01.110Z,15.30
2023-03-11T05:27:01.113Z,15.80
2023-03-11T05:28:01.120Z,15.50
2023-03-11T05:29:01.048Z,16.70
2023-03-11T05:30:01.023Z,15.40
2023-03-11T05:31:01.093Z,16.90
2023-03-11T05:32:01.030Z,15.90
2023-03-11T05:33:01.065Z,15.90
2023-03-11T05:34:01.070Z,18.00
2023-03-11T05:35:01.064Z,17.50
2023-03-11T05:36:01.022Z,19.80
2023-03-11T05:37:02.998Z,15.10
2023-03-11T05:38:01.112Z,16.30
2023-03-11T05:39:00.993Z,16.30
2023-03-11T05:40:00.989Z,16.80
2023-03-11T05:41:00.915Z,16.10
2023-03-11T05:42:00.820Z,18.10
2023-03-11T05:43:00.918Z,17.80
2023-03-11T05:44:00.846Z,18.90
2023-03-11T05:45:00.830Z,20.10
2023-03-11T05:46:00.845Z,20.30
2023-03-11T05:47:00.851Z,20.40
2023-03-11T05:48:01.357Z,23.10
2023-03-11T05:49:00.967Z,21.20
2023-03-11T05:50:00.857Z,19.70
2023-03-11T05:51:00.769Z,22.20
2023-03-11T05:52:00.775Z,19.10
2023-03-11T05:53:00.802Z,20.60
2023-03-11T05:54:00.707Z,20.50
2023-03-11T05:55:00.729Z,18.90
2023-03-11T05:56:00.753Z,20.60
2023-03-11T05:57:00.625Z,18.50
2023-03-11T05:58:01.439Z,20.20
2023-03-11T05:59:01.033Z,21.30
2023-03-11T06:00:00.668Z,18.90
2023-03-11T06:01:00.639Z,20.00
2023-03-11T06:02:00.740Z,20.10
2023-03-11T06:03:01.168Z,18.50
2023-03-11T06:04:00.578Z,19.40
2023-03-11T06:05:00.758Z,19.10
2023-03-11T06:06:00.658Z,22.30
2023-03-11T06:07:00.503Z,19.50
2023-03-11T06:08:00.508Z,19.90
2023-03-11T06:09:00.599Z,18.60
2023-03-11T06:10:00.482Z,19.70
2023-03-11T06:11:00.509Z,17.50
2023-03-11T06:12:00.419Z,19.40
2023-03-11T06:13:00.622Z,18.40
2023-03-11T06:14:00.550Z,17.50
2023-03-11T06:15:00.456Z,17.50
2023-03-11T06:16:01.484Z,19.90
2023-03-11T06:17:00.374Z,16.60
2023-03-11T06:18:00.364Z,20.30
2023-03-11T06:19:00.682Z,17.80
2023-03-11T06:20:00.276Z,19.00
2023-03-11T06:21:00.463Z,17.80
2023-03-11T06:22:00.300Z,15.80
2023-03-11T06:23:00.395Z,19.50
2023-03-11T06:24:00.718Z,16.50
2023-03-11T06:25:00.318Z,15.80
2023-03-11T06:26:00.421Z,17.30
2023-03-11T06:27:00.211Z,18.00
2023-03-11T06:28:00.216Z,16.70
2023-03-11T06:29:00.518Z,20.20
2023-03-11T06:30:00.166Z,17.10
2023-03-11T06:31:00.232Z,17.10
2023-03-11T06:32:00.357Z,16.40
2023-03-11T06:33:00.468Z,15.50
2023-03-11T06:34:00.152Z,14.10
2023-03-11T06:35:00.164Z,13.50
2023-03-11T06:36:00.248Z,12.80
2023-03-11T06:37:00.201Z,14.50
2023-03-11T06:38:00.114Z,15.50
2023-03-11T06:39:00.281Z,14.60
2023-03-11T06:40:00.109Z,13.10
2023-03-11T06:41:00.004Z,13.10
2023-03-11T06:42:00.028Z,15.10
2023-03-11T06:43:01.011Z,13.80
2023-03-11T06:44:00.978Z,15.50
2023-03-11T06:45:00.031Z,14.00
2023-03-11T06:46:00.060Z,12.60
2023-03-11T06:46:59.958Z,14.70
2023-03-11T06:48:00.127Z,15.30
2023-03-11T06:49:00.077Z,13.90
2023-03-11T06:49:59.971Z,14.40
2023-03-11T06:50:59.872Z,12.60
2023-03-11T06:52:00.059Z,12.90
2023-03-11T06:52:59.893Z,13.00
2023-03-11T06:53:59.878Z,13.90
2023-03-11T06:54:59.819Z,13.00
2023-03-11T06:55:59.800Z,14.10
2023-03-11T06:57:00.220Z,14.90
2023-03-11T06:57:59.810Z,13.00
2023-03-11T06:58:59.843Z,13.40
2023-03-11T07:00:00.230Z,13.50
2023-03-11T07:00:59.922Z,12.70
2023-03-11T07:01:59.747Z,13.10
2023-03-11T07:03:00.102Z,14.80
2023-03-11T07:03:59.722Z,14.70
2023-03-11T07:04:59.952Z,15.20
2023-03-11T07:05:59.686Z,15.10
2023-03-11T07:07:01.325Z,13.80
2023-03-11T07:07:59.718Z,13.90
2023-03-11T07:08:59.785Z,15.10
2023-03-11T07:09:59.683Z,15.90
2023-03-11T07:10:59.634Z,17.00
2023-03-11T07:11:59.615Z,13.90
2023-03-11T07:12:59.724Z,13.40
2023-03-11T07:14:00.554Z,14.40
2023-03-11T07:14:59.659Z,17.10
2023-03-11T07:15:59.588Z,15.80
2023-03-11T07:17:00.678Z,15.90
2023-03-11T07:17:59.558Z,15.10
2023-03-11T07:18:59.527Z,12.70
2023-03-11T07:19:59.557Z,14.70
2023-03-11T07:20:59.496Z,14.90
2023-03-11T07:21:59.577Z,15.30
2023-03-11T07:22:59.573Z,14.50
2023-03-11T07:23:59.608Z,14.80
2023-03-11T07:24:59.498Z,15.50
2023-03-11T07:25:59.583Z,16.80
2023-03-11T07:26:59.413Z,12.20
2023-03-11T07:27:59.400Z,13.80
2023-03-11T07:28:59.454Z,13.40
2023-03-11T07:29:59.435Z,13.30
2023-03-11T07:30:59.352Z,15.10
2023-03-11T07:31:59.930Z,12.70
2023-03-11T07:32:59.336Z,14.00
2023-03-11T07:33:59.354Z,16.00
2023-03-11T07:34:59.369Z,12.60
2023-03-11T07:35:59.420Z,12.80
2023-03-11T07:36:59.278Z,12.60
2023-03-11T07:37:59.281Z,12.80
2023-03-11T07:38:59.372Z,11.10
2023-03-11T07:39:59.205Z,12.70
2023-03-11T07:40:59.228Z,12.20
2023-03-11T07:41:59.231Z,11.40
2023-03-11T07:42:59.117Z,11.20
2023-03-11T07:43:59.224Z,10.80
2023-03-11T07:44:59.247Z,10.40
2023-03-11T07:45:59.186Z,12.50
2023-03-11T07:46:59.440Z,11.80
2023-03-11T07:47:59.169Z,11.70
2023-03-11T07:48:59.160Z,11.10
2023-03-11T07:49:59.086Z,10.20
2023-03-11T07:50:59.087Z,13.30
2023-03-11T07:51:59.392Z,12.40
2023-03-11T07:52:59.085Z,10.50
2023-03-11T07:53:59.008Z,11.10
2023-03-11T07:54:59.011Z,12.70
2023-03-11T07:55:59.041Z,10.70
2023-03-11T07:56:59.131Z,10.20
2023-03-11T07:57:59.029Z,10.00
2023-03-11T07:58:59.002Z,10.80
2023-03-11T07:59:59.056Z,10.20
2023-03-11T08:00:59.039Z,11.90
2023-03-11T08:01:58.852Z,12.00
2023-03-11T08:02:59.104Z,10.30
2023-03-11T08:03:59.247Z,12.20
2023-03-11T08:04:58.951Z,10.90
2023-03-11T08:05:58.900Z,11.30
2023-03-11T08:06:58.960Z,10.70
2023-03-11T08:07:58.791Z,10.90
2023-03-11T08:08:58.824Z,10.80
2023-03-11T08:09:58.815Z,11.20
2023-03-11T08:10:58.802Z,10.30
2023-03-11T08:11:58.899Z,8.70
2023-03-11T08:12:58.828Z,9.80
2023-03-11T08:13:58.923Z,8.60
2023-03-11T08:14:58.879Z,9.40
2023-03-11T08:15:58.907Z,9.60
2023-03-11T08:16:58.827Z,13.50
2023-03-11T08:17:58.732Z,8.70
2023-03-11T08:18:58.663Z,8.10
2023-03-11T08:19:58.763Z,9.90
2023-03-11T08:20:58.664Z,8.80
2023-03-11T08:21:58.777Z,9.10
2023-03-11T08:22:59.814Z,9.10
2023-03-11T08:23:58.899Z,9.20
2023-03-11T08:24:58.713Z,9.70
2023-03-11T08:25:58.612Z,8.20
2023-03-11T08:26:58.702Z,8.20
2023-03-11T08:27:58.715Z,9.00
2023-03-11T08:28:58.647Z,8.00
2023-03-11T08:29:58.628Z,7.00
2023-03-11T08:30:58.659Z,7.00
2023-03-11T08:31:58.550Z,7.70
2023-03-11T08:32:58.559Z,7.90
2023-03-11T08:33:58.774Z,8.00
2023-03-11T08:34:58.547Z,7.10
2023-03-11T08:35:59.214Z,7.80
2023-03-11T08:36:58.466Z,7.80
2023-03-11T08:37:58.825Z,8.20
2023-03-11T08:38:58.696Z,7.80
2023-03-11T08:39:58.393Z,7.60
2023-03-11T08:40:59.168Z,8.00
2023-03-11T08:41:58.496Z,9.40
2023-03-11T08:42:58.513Z,8.90
2023-03-11T08:43:58.433Z,7.30
2023-03-11T08:44:58.412Z,7.10
2023-03-11T08:45:58.432Z,7.20
2023-03-11T08:46:58.454Z,7.50
2023-03-11T08:47:58.675Z,7.10
2023-03-11T08:49:00.897Z,9.50
2023-03-11T08:49:58.269Z,7.20
2023-03-11T08:50:59.100Z,7.70
2023-03-11T08:51:58.472Z,8.30
2023-03-11T08:52:58.270Z,7.70
2023-03-11T08:53:58.414Z,6.50
2023-03-11T08:54:58.500Z,7.90
2023-03-11T08:55:58.280Z,6.30
2023-03-11T08:56:58.227Z,7.70
2023-03-11T08:57:58.231Z,7.50
2023-03-11T08:58:58.957Z,6.00
2023-03-11T08:59:58.133Z,6.60
2023-03-11T09:00:58.108Z,5.20
2023-03-11T09:01:58.038Z,5.90
2023-03-11T09:02:58.191Z,6.20
2023-03-11T09:03:58.156Z,8.00
2023-03-11T09:04:58.258Z,7.30
2023-03-11T09:05:58.353Z,6.00
2023-03-11T09:06:57.997Z,6.70
2023-03-11T09:07:57.973Z,7.60
2023-03-11T09:08:58.105Z,7.00
2023-03-11T09:09:57.997Z,5.30
2023-03-11T09:10:58.094Z,6.90
2023-03-11T09:11:58.319Z,5.90
2023-03-11T09:12:58.105Z,8.10
2023-03-11T09:13:58.009Z,12.40
2023-03-11T09:14:58.029Z,14.70
2023-03-11T09:15:57.961Z,14.40
2023-03-11T09:16:57.954Z,14.70
2023-03-11T09:17:58.666Z,10.80
2023-03-11T09:18:57.849Z,8.00
2023-03-11T09:19:57.936Z,7.50
2023-03-11T09:20:57.960Z,9.00
2023-03-11T09:21:58.001Z,7.80
2023-03-11T09:22:57.782Z,8.90
2023-03-11T09:23:57.793Z,10.10
2023-03-11T09:24:58.907Z,10.30
2023-03-11T09:25:57.885Z,10.10
2023-03-11T09:26:57.817Z,9.30
2023-03-11T09:27:57.742Z,9.30
2023-03-11T09:28:57.816Z,9.50
2023-03-11T09:29:57.727Z,10.60
2023-03-11T09:30:57.756Z,9.20
2023-03-11T09:31:57.639Z,10.30
2023-03-11T09:32:57.649Z,8.80
2023-03-11T09:33:57.661Z,8.30
2023-03-11T09:34:57.968Z,9.40
2023-03-11T09:35:57.625Z,8.40
2023-03-11T09:36:57.773Z,8.40
2023-03-11T09:37:57.608Z,5.20
2023-03-11T09:38:57.588Z,5.20
2023-03-11T09:39:57.612Z,4.80
2023-03-11T09:40:57.612Z,5.40
2023-03-11T09:41:59.045Z,7.30
2023-03-11T09:42:57.536Z,8.10
2023-03-11T09:43:57.537Z,9.10
2023-03-11T09:44:57.516Z,8.40
2023-03-11T09:45:57.431Z,9.50
2023-03-11T09:46:57.609Z,8.50
2023-03-11T09:47:58.770Z,5.80
2023-03-11T09:48:57.753Z,6.80
2023-03-11T09:49:57.563Z,6.50
2023-03-11T09:50:57.468Z,5.70
2023-03-11T09:51:57.373Z,4.50
2023-03-11T09:52:57.469Z,4.30
2023-03-11T09:53:57.925Z,4.50
2023-03-11T09:54:57.892Z,4.60
2023-03-11T09:55:57.497Z,5.50
2023-03-11T09:56:57.355Z,6.10
2023-03-11T09:57:57.426Z,7.50
2023-03-11T09:58:57.327Z,8.30
2023-03-11T09:59:57.301Z,6.60
2023-03-11T10:00:57.333Z,6.80
2023-03-11T10:01:57.397Z,5.90
2023-03-11T10:02:57.369Z,6.00
2023-03-11T10:03:57.239Z,6.50
2023-03-11T10:04:57.253Z,5.40
2023-03-11T10:05:57.377Z,5.10
2023-03-11T10:06:57.398Z,4.00
2023-03-11T10:07:57.154Z,3.60
2023-03-11T10:08:57.391Z,4.10
2023-03-11T10:09:57.183Z,4.50
2023-03-11T10:10:57.091Z,3.50
2023-03-11T10:11:57.105Z,3.70
2023-03-11T10:12:57.417Z,3.60
2023-03-11T10:13:57.746Z,4.10
2023-03-11T10:14:57.254Z,5.60
2023-03-11T10:15:57.134Z,4.20
2023-03-11T10:16:57.022Z,4.80
2023-03-11T10:17:57.146Z,4.60
2023-03-11T10:18:57.762Z,4.20
2023-03-11T10:19:57.146Z,3.90
2023-03-11T10:20:57.052Z,4.70
2023-03-11T10:21:57.054Z,6.00
2023-03-11T10:22:57.174Z,5.60
2023-03-11T10:23:57.004Z,5.00
2023-03-11T10:24:56.982Z,5.60
2023-03-11T10:25:56.879Z,5.10
2023-03-11T10:26:57.009Z,6.00
2023-03-11T10:27:56.929Z,5.40
2023-03-11T10:28:57.107Z,5.80
2023-03-11T10:29:56.830Z,6.20
2023-03-11T10:30:56.812Z,6.30
2023-03-11T10:31:57.224Z,5.80
2023-03-11T10:32:56.792Z,5.40
2023-03-11T10:33:56.861Z,6.60
2023-03-11T10:34:56.764Z,6.90
2023-03-11T10:35:56.890Z,6.30
2023-03-11T10:36:56.886Z,6.80
2023-03-11T10:37:56.805Z,6.60
2023-03-11T10:38:56.785Z,6.30
2023-03-11T10:39:56.799Z,5.70
2023-03-11T10:40:56.789Z,7.10
2023-03-11T10:41:56.713Z,7.50
2023-03-11T10:42:56.720Z,5.30
2023-03-11T10:43:56.731Z,7.10
2023-03-11T10:44:56.630Z,5.30
2023-03-11T10:45:56.691Z,5.40
2023-03-11T10:46:56.769Z,5.90
2023-03-11T10:47:56.646Z,5.60
2023-03-11T10:48:56.741Z,5.00
2023-03-11T10:49:56.597Z,6.10
2023-03-11T10:50:56.568Z,7.00
2023-03-11T10:51:56.569Z,5.30
2023-03-11T10:52:56.579Z,5.30
2023-03-11T10:53:56.558Z,5.50
2023-03-11T10:54:57.418Z,5.40
2023-03-11T10:55:56.389Z,5.80
2023-03-11T10:56:56.492Z,4.40
2023-03-11T10:57:56.416Z,5.10
2023-03-11T10:58:56.426Z,4.70
2023-03-11T10:59:56.613Z,4.60
2023-03-11T11:00:56.474Z,5.30
2023-03-11T11:01:56.440Z,6.80
2023-03-11T11:02:56.427Z,6.40
2023-03-11T11:03:56.469Z,5.30
2023-03-11T11:04:56.438Z,5.50
2023-03-11T11:05:56.585Z,5.40
2023-03-11T11:06:56.391Z,5.00
2023-03-11T11:07:56.478Z,5.10
2023-03-11T11:08:56.595Z,3.80
2023-03-11T11:09:56.285Z,4.10
2023-03-11T11:10:56.313Z,4.20
2023-03-11T11:11:56.309Z,3.80
2023-03-11T11:12:56.702Z,4.30
2023-03-11T11:13:56.217Z,4.40
2023-03-11T11:14:56.314Z,4.30
2023-03-11T11:15:56.203Z,4.30
2023-03-11T11:16:56.647Z,3.80
2023-03-11T11:17:56.430Z,3.80
2023-03-11T11:18:56.154Z,3.80
2023-03-11T11:19:56.452Z,3.40
2023-03-11T11:20:57.301Z,3.60
2023-03-11T11:21:56.176Z,3.60
2023-03-11T11:22:56.256Z,3.90
2023-03-11T11:23:56.073Z,3.80
2023-03-11T11:24:56.112Z,4.30
2023-03-11T11:25:56.210Z,4.50
2023-03-11T11:26:56.088Z,4.60
2023-03-11T11:27:56.092Z,4.40
2023-03-11T11:28:56.010Z,5.60
2023-03-11T11:29:56.119Z,5.10
2023-03-11T11:30:56.144Z,4.30
2023-03-11T11:31:55.931Z,4.80
2023-03-11T11:32:56.138Z,4.70
2023-03-11T11:33:55.951Z,4.50
2023-03-11T11:34:55.970Z,4.90
2023-03-11T11:35:56.036Z,4.40
2023-03-11T11:36:56.118Z,4.80
2023-03-11T11:37:55.881Z,3.40
2023-03-11T11:38:55.892Z,3.70
2023-03-11T11:39:55.891Z,4.40
2023-03-11T11:40:55.888Z,4.70
2023-03-11T11:41:55.938Z,3.80
2023-03-11T11:42:55.805Z,4.20
2023-03-11T11:43:55.913Z,4.40
2023-03-11T11:44:55.837Z,4.00
2023-03-11T11:45:56.526Z,4.20
2023-03-11T11:46:55.740Z,3.70
2023-03-11T11:47:55.741Z,3.80
2023-03-11T11:48:55.931Z,3.70
2023-03-11T11:49:55.758Z,3.50
2023-03-11T11:50:55.762Z,3.50
2023-03-11T11:51:55.761Z,3.20
2023-03-11T11:52:55.673Z,3.40
2023-03-11T11:53:55.889Z,3.70
2023-03-11T11:54:55.699Z,3.00
2023-03-11T11:55:55.778Z,2.70
2023-03-11T11:56:55.699Z,2.90
2023-03-11T11:57:55.816Z,2.90
2023-03-11T11:58:55.816Z,3.10
2023-03-11T11:59:57.734Z,2.60
2023-03-11T12:00:55.725Z,3.30
2023-03-11T12:01:55.642Z,2.70
2023-03-11T12:02:55.600Z,3.10
2023-03-11T12:03:56.478Z,3.40
2023-03-11T12:04:55.554Z,4.00
2023-03-11T12:05:57.962Z,2.80
2023-03-11T12:06:55.598Z,2.70
2023-03-11T12:07:55.504Z,3.20
2023-03-11T12:08:55.563Z,2.80
2023-03-11T12:09:55.390Z,2.30
2023-03-11T12:10:55.593Z,2.40
2023-03-11T12:11:55.403Z,2.90
2023-03-11T12:12:55.535Z,2.40
2023-03-11T12:13:56.529Z,2.70
2023-03-11T12:14:55.929Z,2.40
2023-03-11T12:15:55.566Z,2.40
2023-03-11T12:16:55.432Z,2.90
2023-03-11T12:17:55.446Z,2.70
2023-03-11T13:00:12.684Z,1.90
2023-03-11T13:00:50.497Z,1.90
2023-03-11T13:01:50.465Z,2.30
2023-03-11T13:02:50.582Z,2.10
2023-03-11T13:03:50.484Z,2.20
2023-03-11T13:04:50.461Z,2.20
2023-03-11T13:05:50.564Z,1.90
2023-03-11T13:06:50.373Z,2.10
2023-03-11T13:07:50.370Z,2.00
2023-03-11T13:08:50.377Z,2.10
2023-03-11T13:09:50.315Z,2.00
2023-03-11T13:10:50.482Z,1.80
2023-03-11T13:11:50.340Z,1.90
2023-03-11T13:12:50.336Z,1.90
2023-03-11T13:13:50.431Z,1.90
2023-03-11T13:14:50.415Z,1.70
2023-03-11T13:15:50.318Z,1.60
2023-03-11T13:16:50.245Z,1.90
2023-03-11T13:17:50.343Z,1.90
2023-03-11T13:18:50.333Z,2.00
2023-03-11T13:19:50.257Z,1.90
2023-03-11T13:20:50.351Z,1.60
2023-03-11T13:21:50.271Z,2.30
2023-03-11T13:22:50.177Z,1.70
2023-03-11T13:23:50.269Z,2.00
2023-03-11T13:24:50.192Z,1.60
2023-03-11T22:20:25.162Z,2.30
2023-03-11T22:21:24.730Z,2.30
2023-03-11T22:22:24.719Z,2.00
2023-03-11T22:23:24.730Z,2.00
2023-03-11T22:24:24.633Z,2.20
2023-03-11T22:25:24.743Z,2.20
2023-03-11T22:26:24.666Z,2.20
2023-03-11T22:27:24.647Z,2.10
2023-03-11T22:28:24.648Z,2.30
2023-03-11T22:29:24.562Z,2.10
2023-03-11T22:30:24.662Z,1.90
2023-03-11T22:31:24.604Z,2.10
2023-03-11T22:32:25.033Z,2.20
2023-03-11T22:33:24.685Z,2.00
2023-03-11T22:34:24.593Z,2.00
2023-03-11T22:35:24.512Z,2.20
2023-03-11T22:36:24.409Z,2.20
2023-03-11T22:37:24.846Z,2.30
2023-03-11T22:38:24.867Z,2.40
2023-03-11T22:39:24.441Z,2.20
2023-03-11T22:40:24.435Z,2.10
2023-03-11T22:41:24.472Z,2.40
2023-03-11T22:42:24.571Z,2.50
2023-03-11T22:43:24.550Z,2.80
2023-03-11T22:44:24.477Z,2.50
2023-03-11T22:45:24.391Z,2.50
2023-03-11T22:46:24.588Z,2.70
2023-03-11T22:47:24.493Z,2.10
2023-03-11T22:48:24.689Z,2.70
2023-03-11T22:49:24.416Z,2.50
2023-03-11T22:50:24.541Z,2.60
2023-03-11T22:51:24.540Z,2.50
2023-03-11T22:52:24.350Z,1.90
2023-03-11T22:53:24.336Z,2.30
2023-03-11T22:54:24.328Z,2.10
2023-03-11T22:55:24.461Z,2.00
2023-03-11T22:56:24.335Z,2.50
2023-03-11T22:57:24.265Z,2.60
2023-03-11T22:58:24.361Z,2.60
2023-03-11T22:59:24.284Z,2.30
2023-03-11T23:00:24.215Z,2.60
2023-03-11T23:01:24.681Z,3.20
2023-03-11T23:02:24.286Z,2.60
2023-03-11T23:03:24.196Z,2.40
2023-03-11T23:04:24.296Z,2.40
2023-03-11T23:05:24.206Z,2.70
2023-03-11T23:06:24.216Z,2.70
2023-03-11T23:07:24.227Z,3.00
2023-03-11T23:08:24.220Z,3.30
2023-03-11T23:09:24.120Z,3.40
2023-03-11T23:10:24.150Z,3.00
2023-03-11T23:11:24.143Z,3.00
2023-03-11T23:12:24.150Z,3.00
2023-03-11T23:13:24.076Z,3.20
2023-03-11T23:14:37.850Z,3.10
2023-03-11T23:15:25.006Z,3.40
2023-03-11T23:16:24.079Z,3.80
2023-03-11T23:17:25.134Z,3.80
2023-03-11T23:18:23.933Z,3.40
2023-03-11T23:19:24.200Z,4.00
2023-03-11T23:20:24.016Z,3.50
2023-03-11T23:21:24.045Z,3.40
2023-03-11T23:22:23.920Z,3.50
2023-03-11T23:23:23.955Z,3.90
2023-03-11T23:24:23.920Z,4.10
2023-03-11T23:25:23.947Z,3.70
2023-03-11T23:26:24.863Z,4.00
2023-03-11T23:27:23.971Z,3.60
2023-03-11T23:28:23.767Z,4.40
2023-03-11T23:29:23.889Z,4.10
2023-03-11T23:30:24.193Z,4.00
2023-03-11T23:31:24.067Z,4.10
2023-03-11T23:32:23.941Z,4.10
2023-03-11T23:33:23.796Z,4.50
2023-03-11T23:34:23.702Z,5.10
2023-03-11T23:35:23.845Z,4.70
2023-03-11T23:36:23.721Z,4.30
2023-03-11T23:37:23.610Z,4.30
2023-03-11T23:38:23.663Z,4.30
2023-03-11T23:39:23.625Z,4.40
2023-03-11T23:40:23.632Z,4.40
2023-03-11T23:41:23.578Z,4.50
2023-03-11T23:42:26.100Z,4.20
2023-03-11T23:43:23.780Z,4.70
2023-03-11T23:44:23.765Z,4.50
2023-03-11T23:45:23.785Z,4.50
2023-03-11T23:46:23.641Z,4.20
2023-03-11T23:47:23.492Z,5.10
2023-03-11T23:48:23.601Z,5.00
2023-03-11T23:49:26.357Z,5.00
2023-03-11T23:50:23.619Z,4.40
2023-03-11T23:51:23.630Z,4.20
2023-03-11T23:52:23.521Z,5.00
2023-03-11T23:53:23.634Z,4.60
2023-03-11T23:54:23.430Z,5.10
2023-03-11T23:55:23.667Z,5.10
2023-03-11T23:56:23.441Z,5.40
2023-03-11T23:57:23.491Z,5.20
2023-03-11T23:58:23.489Z,4.70
2023-03-11T23:59:23.361Z,5.60
